sensor_id;sensor_type;location;lat;lon;timestamp;pressure;altitude;pressure_sealevel;temperature;humidity
64139;BME280;50435;43.700;-79.318;2022-09-09T00:00:37;100008.89;;;24.30;40.95
64139;BME280;50435;43.700;-79.318;2022-09-09T00:03:14;100016.41;;;24.22;41.16
64139;BME280;50435;43.700;-79.318;2022-09-09T00:05:48;100023.88;;;24.15;41.02
64139;BME280;50435;43.700;-79.318;2022-09-09T00:08:21;100029.79;;;24.11;41.31
64139;BME280;50435;43.700;-79.318;2022-09-09T00:10:56;100029.08;;;24.05;41.00
64139;BME280;50435;43.700;-79.318;2022-09-09T00:13:28;100031.79;;;23.97;41.67
64139;BME280;50435;43.700;-79.318;2022-09-09T00:16:02;100037.39;;;23.93;41.55
64139;BME280;50435;43.700;-79.318;2022-09-09T00:18:40;100040.21;;;24.10;41.27
64139;BME280;50435;43.700;-79.318;2022-09-09T00:21:13;100038.17;;;23.67;41.73
64139;BME280;50435;43.700;-79.318;2022-09-09T00:23:45;100038.66;;;23.83;41.72
64139;BME280;50435;43.700;-79.318;2022-09-09T00:26:21;100042.98;;;24.03;41.79
64139;BME280;50435;43.700;-79.318;2022-09-09T00:28:55;100047.37;;;23.47;41.96
64139;BME280;50435;43.700;-79.318;2022-09-09T00:31:29;100048.15;;;23.61;41.96
64139;BME280;50435;43.700;-79.318;2022-09-09T00:34:02;100044.48;;;23.67;41.98
64139;BME280;50435;43.700;-79.318;2022-09-09T00:36:32;100042.16;;;23.79;42.29
64139;BME280;50435;43.700;-79.318;2022-09-09T00:39:03;100042.67;;;23.79;42.08
64139;BME280;50435;43.700;-79.318;2022-09-09T00:41:44;100040.48;;;23.72;42.30
64139;BME280;50435;43.700;-79.318;2022-09-09T00:44:23;100040.12;;;23.38;42.10
64139;BME280;50435;43.700;-79.318;2022-09-09T00:47:03;100043.76;;;23.60;42.26
64139;BME280;50435;43.700;-79.318;2022-09-09T00:49:39;100046.62;;;23.33;42.16
64139;BME280;50435;43.700;-79.318;2022-09-09T00:52:22;100044.40;;;23.23;42.48
64139;BME280;50435;43.700;-79.318;2022-09-09T00:55:00;100045.97;;;23.45;42.46
64139;BME280;50435;43.700;-79.318;2022-09-09T00:57:32;100046.53;;;23.55;42.72
64139;BME280;50435;43.700;-79.318;2022-09-09T01:00:17;100046.23;;;23.60;42.51
64139;BME280;50435;43.700;-79.318;2022-09-09T01:02:53;100048.82;;;23.19;42.82
64139;BME280;50435;43.700;-79.318;2022-09-09T01:05:30;100050.17;;;23.41;42.88
64139;BME280;50435;43.700;-79.318;2022-09-09T01:08:05;100049.79;;;23.36;42.70
64139;BME280;50435;43.700;-79.318;2022-09-09T01:10:41;100047.28;;;23.03;42.96
64139;BME280;50435;43.700;-79.318;2022-09-09T01:13:15;100049.48;;;23.25;42.93
64139;BME280;50435;43.700;-79.318;2022-09-09T01:15:46;100055.94;;;22.96;42.99
64139;BME280;50435;43.700;-79.318;2022-09-09T01:18:17;100058.84;;;23.15;43.09
64139;BME280;50435;43.700;-79.318;2022-09-09T01:20:54;100057.91;;;22.98;43.34
64139;BME280;50435;43.700;-79.318;2022-09-09T01:23:35;100056.61;;;22.55;43.72
64139;BME280;50435;43.700;-79.318;2022-09-09T01:26:20;100054.70;;;22.67;43.86
64139;BME280;50435;43.700;-79.318;2022-09-09T01:28:50;100054.75;;;22.66;43.88
64139;BME280;50435;43.700;-79.318;2022-09-09T01:31:21;100051.71;;;22.53;44.01
64139;BME280;50435;43.700;-79.318;2022-09-09T01:33:50;100053.65;;;22.52;43.96
64139;BME280;50435;43.700;-79.318;2022-09-09T01:36:24;100054.94;;;22.53;43.96
64139;BME280;50435;43.700;-79.318;2022-09-09T01:38:53;100054.52;;;22.40;44.20
64139;BME280;50435;43.700;-79.318;2022-09-09T01:41:22;100055.06;;;22.61;44.14
64139;BME280;50435;43.700;-79.318;2022-09-09T01:43:50;100056.02;;;22.29;44.21
64139;BME280;50435;43.700;-79.318;2022-09-09T01:46:17;100061.11;;;22.18;44.31
64139;BME280;50435;43.700;-79.318;2022-09-09T01:48:50;100061.10;;;22.25;44.37
64139;BME280;50435;43.700;-79.318;2022-09-09T01:51:18;100064.19;;;22.41;44.26
64139;BME280;50435;43.700;-79.318;2022-09-09T01:53:47;100065.65;;;22.14;44.59
64139;BME280;50435;43.700;-79.318;2022-09-09T01:56:25;100066.23;;;22.21;44.12
64139;BME280;50435;43.700;-79.318;2022-09-09T01:59:04;100066.63;;;22.25;44.54
64139;BME280;50435;43.700;-79.318;2022-09-09T02:01:44;100065.66;;;22.24;44.40
64139;BME280;50435;43.700;-79.318;2022-09-09T02:04:27;100064.39;;;22.08;44.80
64139;BME280;50435;43.700;-79.318;2022-09-09T02:07:00;100065.52;;;21.88;44.55
64139;BME280;50435;43.700;-79.318;2022-09-09T02:09:29;100063.11;;;21.96;44.83
64139;BME280;50435;43.700;-79.318;2022-09-09T02:12:01;100059.68;;;21.94;44.72
64139;BME280;50435;43.700;-79.318;2022-09-09T02:14:37;100061.30;;;21.99;44.82
64139;BME280;50435;43.700;-79.318;2022-09-09T02:17:10;100067.52;;;21.74;45.30
64139;BME280;50435;43.700;-79.318;2022-09-09T02:19:42;100067.17;;;22.12;44.98
64139;BME280;50435;43.700;-79.318;2022-09-09T02:22:12;100064.05;;;22.13;44.85
64139;BME280;50435;43.700;-79.318;2022-09-09T02:24:40;100067.86;;;21.75;45.18
64139;BME280;50435;43.700;-79.318;2022-09-09T02:27:09;100075.49;;;21.81;45.34
64139;BME280;50435;43.700;-79.318;2022-09-09T02:29:40;100073.01;;;21.70;45.22
64139;BME280;50435;43.700;-79.318;2022-09-09T02:32:11;100067.60;;;21.68;45.25
64139;BME280;50435;43.700;-79.318;2022-09-09T02:34:43;100069.84;;;21.85;45.35
64139;BME280;50435;43.700;-79.318;2022-09-09T02:37:13;100073.62;;;21.78;45.44
64139;BME280;50435;43.700;-79.318;2022-09-09T02:39:42;100075.84;;;21.64;45.85
64139;BME280;50435;43.700;-79.318;2022-09-09T02:42:09;100072.38;;;21.57;45.56
64139;BME280;50435;43.700;-79.318;2022-09-09T02:44:37;100065.85;;;21.35;45.44
64139;BME280;50435;43.700;-79.318;2022-09-09T02:47:15;100068.54;;;21.47;46.04
64139;BME280;50435;43.700;-79.318;2022-09-09T02:49:54;100067.35;;;21.30;45.53
64139;BME280;50435;43.700;-79.318;2022-09-09T02:52:30;100068.31;;;21.54;45.83
64139;BME280;50435;43.700;-79.318;2022-09-09T02:55:06;100069.12;;;21.40;45.90
64139;BME280;50435;43.700;-79.318;2022-09-09T02:57:36;100065.88;;;21.40;45.91
64139;BME280;50435;43.700;-79.318;2022-09-09T03:00:06;100067.65;;;21.39;45.80
64139;BME280;50435;43.700;-79.318;2022-09-09T03:02:33;100065.74;;;21.23;46.16
64139;BME280;50435;43.700;-79.318;2022-09-09T03:05:01;100069.10;;;21.33;45.96
64139;BME280;50435;43.700;-79.318;2022-09-09T03:07:28;100071.55;;;21.27;45.73
64139;BME280;50435;43.700;-79.318;2022-09-09T03:09:56;100071.50;;;21.21;46.13
64139;BME280;50435;43.700;-79.318;2022-09-09T03:12:23;100067.22;;;21.15;45.97
64139;BME280;50435;43.700;-79.318;2022-09-09T03:14:51;100069.59;;;21.09;46.30
64139;BME280;50435;43.700;-79.318;2022-09-09T03:17:18;100068.10;;;21.13;45.94
64139;BME280;50435;43.700;-79.318;2022-09-09T03:19:46;100070.04;;;20.99;46.25
64139;BME280;50435;43.700;-79.318;2022-09-09T03:22:13;100069.65;;;21.06;46.17
64139;BME280;50435;43.700;-79.318;2022-09-09T03:24:41;100070.58;;;20.95;46.31
64139;BME280;50435;43.700;-79.318;2022-09-09T03:27:08;100075.67;;;21.01;46.17
64139;BME280;50435;43.700;-79.318;2022-09-09T03:29:35;100079.22;;;20.89;46.26
64139;BME280;50435;43.700;-79.318;2022-09-09T03:32:03;100078.90;;;20.92;46.40
64139;BME280;50435;43.700;-79.318;2022-09-09T03:34:31;100080.31;;;21.11;46.39
64139;BME280;50435;43.700;-79.318;2022-09-09T03:36:58;100086.93;;;21.08;46.50
64139;BME280;50435;43.700;-79.318;2022-09-09T03:39:25;100085.12;;;20.71;46.68
64139;BME280;50435;43.700;-79.318;2022-09-09T03:41:52;100083.61;;;21.14;46.66
64139;BME280;50435;43.700;-79.318;2022-09-09T03:44:20;100086.53;;;20.76;46.25
64139;BME280;50435;43.700;-79.318;2022-09-09T03:46:48;100087.50;;;20.94;46.57
64139;BME280;50435;43.700;-79.318;2022-09-09T03:49:15;100086.55;;;20.63;46.70
64139;BME280;50435;43.700;-79.318;2022-09-09T03:51:43;100085.34;;;20.86;46.61
64139;BME280;50435;43.700;-79.318;2022-09-09T03:54:10;100087.12;;;21.02;46.80
64139;BME280;50435;43.700;-79.318;2022-09-09T03:56:38;100088.00;;;21.03;46.52
64139;BME280;50435;43.700;-79.318;2022-09-09T03:59:06;100093.74;;;20.76;46.77
64139;BME280;50435;43.700;-79.318;2022-09-09T04:01:34;100101.44;;;20.89;46.88
64139;BME280;50435;43.700;-79.318;2022-09-09T04:04:02;100104.09;;;20.86;46.88
64139;BME280;50435;43.700;-79.318;2022-09-09T04:06:29;100107.51;;;20.78;47.05
64139;BME280;50435;43.700;-79.318;2022-09-09T04:08:57;100104.26;;;20.76;47.04
64139;BME280;50435;43.700;-79.318;2022-09-09T04:11:24;100106.00;;;20.77;46.95
64139;BME280;50435;43.700;-79.318;2022-09-09T04:13:52;100106.08;;;20.79;46.78
64139;BME280;50435;43.700;-79.318;2022-09-09T04:16:19;100105.57;;;20.77;46.83
64139;BME280;50435;43.700;-79.318;2022-09-09T04:18:47;100106.51;;;20.23;46.86
64139;BME280;50435;43.700;-79.318;2022-09-09T04:21:14;100106.00;;;20.64;47.12
64139;BME280;50435;43.700;-79.318;2022-09-09T04:23:42;100113.04;;;20.31;47.32
64139;BME280;50435;43.700;-79.318;2022-09-09T04:26:09;100114.45;;;20.52;47.15
64139;BME280;50435;43.700;-79.318;2022-09-09T04:28:37;100113.47;;;20.58;47.15
64139;BME280;50435;43.700;-79.318;2022-09-09T04:31:06;100118.87;;;20.46;47.33
64139;BME280;50435;43.700;-79.318;2022-09-09T04:33:34;100117.75;;;20.48;47.06
64139;BME280;50435;43.700;-79.318;2022-09-09T04:36:01;100120.25;;;20.49;47.17
64139;BME280;50435;43.700;-79.318;2022-09-09T04:38:29;100123.75;;;20.44;47.01
64139;BME280;50435;43.700;-79.318;2022-09-09T04:40:56;100124.70;;;20.19;47.11
64139;BME280;50435;43.700;-79.318;2022-09-09T04:43:24;100125.79;;;20.18;47.06
64139;BME280;50435;43.700;-79.318;2022-09-09T04:45:51;100130.59;;;20.36;47.30
64139;BME280;50435;43.700;-79.318;2022-09-09T04:48:19;100130.10;;;20.15;47.22
64139;BME280;50435;43.700;-79.318;2022-09-09T04:50:55;100134.55;;;20.27;47.41
64139;BME280;50435;43.700;-79.318;2022-09-09T04:53:23;100138.05;;;20.25;47.34
64139;BME280;50435;43.700;-79.318;2022-09-09T04:55:51;100137.59;;;20.20;47.51
64139;BME280;50435;43.700;-79.318;2022-09-09T04:58:18;100138.94;;;20.25;47.44
64139;BME280;50435;43.700;-79.318;2022-09-09T05:00:46;100142.46;;;20.20;47.41
64139;BME280;50435;43.700;-79.318;2022-09-09T05:03:14;100142.74;;;20.11;47.47
64139;BME280;50435;43.700;-79.318;2022-09-09T05:05:41;100145.79;;;20.16;47.43
64139;BME280;50435;43.700;-79.318;2022-09-09T05:08:09;100156.74;;;20.05;47.65
64139;BME280;50435;43.700;-79.318;2022-09-09T05:10:38;100161.04;;;20.04;47.64
64139;BME280;50435;43.700;-79.318;2022-09-09T05:13:05;100164.47;;;20.04;47.52
64139;BME280;50435;43.700;-79.318;2022-09-09T05:15:33;100169.86;;;20.03;47.62
64139;BME280;50435;43.700;-79.318;2022-09-09T05:18:01;100167.24;;;20.03;47.64
64139;BME280;50435;43.700;-79.318;2022-09-09T05:20:29;100163.57;;;19.90;47.78
64139;BME280;50435;43.700;-79.318;2022-09-09T05:22:57;100166.14;;;19.94;47.72
64139;BME280;50435;43.700;-79.318;2022-09-09T05:25:25;100166.81;;;19.83;47.96
64139;BME280;50435;43.700;-79.318;2022-09-09T05:27:52;100168.81;;;19.91;47.81
64139;BME280;50435;43.700;-79.318;2022-09-09T05:30:20;100173.71;;;20.18;47.73
64139;BME280;50435;43.700;-79.318;2022-09-09T05:32:47;100174.93;;;19.85;47.89
64139;BME280;50435;43.700;-79.318;2022-09-09T05:35:15;100175.48;;;19.81;47.84
64139;BME280;50435;43.700;-79.318;2022-09-09T05:37:43;100178.13;;;20.03;47.98
64139;BME280;50435;43.700;-79.318;2022-09-09T05:40:10;100181.04;;;19.95;48.16
64139;BME280;50435;43.700;-79.318;2022-09-09T05:42:38;100182.34;;;20.08;47.81
64139;BME280;50435;43.700;-79.318;2022-09-09T05:45:06;100181.61;;;19.72;48.09
64139;BME280;50435;43.700;-79.318;2022-09-09T05:47:34;100181.67;;;19.64;48.20
64139;BME280;50435;43.700;-79.318;2022-09-09T05:50:02;100182.59;;;19.68;48.04
64139;BME280;50435;43.700;-79.318;2022-09-09T05:52:29;100184.84;;;19.65;48.14
64139;BME280;50435;43.700;-79.318;2022-09-09T05:54:56;100186.42;;;19.37;48.30
64139;BME280;50435;43.700;-79.318;2022-09-09T05:57:24;100190.70;;;19.56;48.25
64139;BME280;50435;43.700;-79.318;2022-09-09T05:59:51;100196.52;;;19.81;48.30
64139;BME280;50435;43.700;-79.318;2022-09-09T06:02:18;100193.98;;;19.79;48.25
64139;BME280;50435;43.700;-79.318;2022-09-09T06:04:46;100192.73;;;19.57;48.30
64139;BME280;50435;43.700;-79.318;2022-09-09T06:07:14;100194.57;;;19.50;48.39
64139;BME280;50435;43.700;-79.318;2022-09-09T06:09:42;100197.07;;;19.50;48.39
64139;BME280;50435;43.700;-79.318;2022-09-09T06:12:09;100195.23;;;19.68;48.42
64139;BME280;50435;43.700;-79.318;2022-09-09T06:14:37;100199.37;;;19.88;48.54
64139;BME280;50435;43.700;-79.318;2022-09-09T06:17:05;100199.46;;;19.58;48.69
64139;BME280;50435;43.700;-79.318;2022-09-09T06:19:32;100200.24;;;19.67;48.48
64139;BME280;50435;43.700;-79.318;2022-09-09T06:22:00;100201.11;;;19.57;48.70
64139;BME280;50435;43.700;-79.318;2022-09-09T06:24:27;100204.68;;;19.54;48.69
64139;BME280;50435;43.700;-79.318;2022-09-09T06:26:55;100204.87;;;19.74;48.72
64139;BME280;50435;43.700;-79.318;2022-09-09T06:29:22;100207.02;;;19.44;48.87
64139;BME280;50435;43.700;-79.318;2022-09-09T06:31:50;100205.12;;;19.44;48.76
64139;BME280;50435;43.700;-79.318;2022-09-09T06:34:17;100200.65;;;19.38;48.94
64139;BME280;50435;43.700;-79.318;2022-09-09T06:36:44;100201.22;;;19.05;48.99
64139;BME280;50435;43.700;-79.318;2022-09-09T06:39:12;100198.06;;;19.33;48.99
64139;BME280;50435;43.700;-79.318;2022-09-09T06:41:40;100195.36;;;19.29;49.11
64139;BME280;50435;43.700;-79.318;2022-09-09T06:44:07;100198.53;;;19.27;49.12
64139;BME280;50435;43.700;-79.318;2022-09-09T06:46:35;100199.28;;;19.45;49.17
64139;BME280;50435;43.700;-79.318;2022-09-09T06:49:03;100200.69;;;19.18;49.25
64139;BME280;50435;43.700;-79.318;2022-09-09T06:51:31;100199.73;;;19.23;49.09
64139;BME280;50435;43.700;-79.318;2022-09-09T06:54:00;100200.20;;;19.33;49.34
64139;BME280;50435;43.700;-79.318;2022-09-09T06:56:29;100200.47;;;19.30;49.35
64139;BME280;50435;43.700;-79.318;2022-09-09T06:58:59;100198.72;;;18.93;49.70
64139;BME280;50435;43.700;-79.318;2022-09-09T07:01:28;100197.31;;;19.10;49.36
64139;BME280;50435;43.700;-79.318;2022-09-09T07:03:57;100194.77;;;19.11;49.29
64139;BME280;50435;43.700;-79.318;2022-09-09T07:06:26;100190.54;;;19.04;49.41
64139;BME280;50435;43.700;-79.318;2022-09-09T07:08:55;100189.87;;;19.25;49.53
64139;BME280;50435;43.700;-79.318;2022-09-09T07:11:25;100187.96;;;19.15;49.65
64139;BME280;50435;43.700;-79.318;2022-09-09T07:13:53;100183.16;;;19.09;49.76
64139;BME280;50435;43.700;-79.318;2022-09-09T07:16:21;100178.48;;;19.08;49.75
64139;BME280;50435;43.700;-79.318;2022-09-09T07:18:49;100176.17;;;19.12;49.69
64139;BME280;50435;43.700;-79.318;2022-09-09T07:21:17;100169.60;;;19.05;49.85
64139;BME280;50435;43.700;-79.318;2022-09-09T07:23:45;100166.21;;;19.31;49.78
64139;BME280;50435;43.700;-79.318;2022-09-09T07:26:15;100167.13;;;18.77;49.86
64139;BME280;50435;43.700;-79.318;2022-09-09T07:28:43;100169.82;;;18.79;49.90
64139;BME280;50435;43.700;-79.318;2022-09-09T07:31:14;100174.98;;;19.05;49.73
64139;BME280;50435;43.700;-79.318;2022-09-09T07:33:42;100180.15;;;18.97;49.90
64139;BME280;50435;43.700;-79.318;2022-09-09T07:36:12;100183.45;;;18.77;49.81
64139;BME280;50435;43.700;-79.318;2022-09-09T07:38:41;100182.33;;;18.91;49.97
64139;BME280;50435;43.700;-79.318;2022-09-09T07:41:10;100184.97;;;18.91;50.03
64139;BME280;50435;43.700;-79.318;2022-09-09T07:43:38;100188.08;;;18.91;50.01
64139;BME280;50435;43.700;-79.318;2022-09-09T07:46:06;100192.18;;;18.63;50.49
64139;BME280;50435;43.700;-79.318;2022-09-09T07:48:34;100184.82;;;18.92;49.95
64139;BME280;50435;43.700;-79.318;2022-09-09T07:51:06;100183.65;;;18.82;50.15
64139;BME280;50435;43.700;-79.318;2022-09-09T07:53:34;100184.64;;;18.78;50.28
64139;BME280;50435;43.700;-79.318;2022-09-09T07:56:04;100188.20;;;18.83;50.13
64139;BME280;50435;43.700;-79.318;2022-09-09T07:58:32;100189.09;;;18.75;50.22
64139;BME280;50435;43.700;-79.318;2022-09-09T08:00:59;100195.06;;;18.77;50.26
64139;BME280;50435;43.700;-79.318;2022-09-09T08:03:27;100201.22;;;18.60;50.51
64139;BME280;50435;43.700;-79.318;2022-09-09T08:06:01;100203.63;;;18.76;50.22
64139;BME280;50435;43.700;-79.318;2022-09-09T08:08:29;100207.80;;;19.01;50.27
64139;BME280;50435;43.700;-79.318;2022-09-09T08:11:03;100202.90;;;18.55;50.20
64139;BME280;50435;43.700;-79.318;2022-09-09T08:13:31;100201.16;;;18.70;50.29
64139;BME280;50435;43.700;-79.318;2022-09-09T08:16:05;100201.59;;;18.59;50.46
64139;BME280;50435;43.700;-79.318;2022-09-09T08:18:34;100206.38;;;18.80;50.12
64139;BME280;50435;43.700;-79.318;2022-09-09T08:21:10;100211.32;;;18.67;50.29
64139;BME280;50435;43.700;-79.318;2022-09-09T08:23:39;100217.42;;;18.30;50.62
64139;BME280;50435;43.700;-79.318;2022-09-09T08:26:10;100220.20;;;18.69;50.25
64139;BME280;50435;43.700;-79.318;2022-09-09T08:28:37;100224.13;;;18.61;50.39
64139;BME280;50435;43.700;-79.318;2022-09-09T08:31:06;100225.14;;;18.53;50.61
64139;BME280;50435;43.700;-79.318;2022-09-09T08:33:34;100223.22;;;18.62;50.42
64139;BME280;50435;43.700;-79.318;2022-09-09T08:36:02;100219.94;;;18.42;50.76
64139;BME280;50435;43.700;-79.318;2022-09-09T08:38:29;100219.03;;;18.54;50.53
64139;BME280;50435;43.700;-79.318;2022-09-09T08:41:06;100217.40;;;18.28;50.97
64139;BME280;50435;43.700;-79.318;2022-09-09T08:43:36;100215.80;;;18.55;50.48
64139;BME280;50435;43.700;-79.318;2022-09-09T08:46:08;100213.17;;;18.49;50.56
64139;BME280;50435;43.700;-79.318;2022-09-09T08:48:48;100215.86;;;18.72;50.58
64139;BME280;50435;43.700;-79.318;2022-09-09T08:51:18;100215.92;;;18.48;50.56
64139;BME280;50435;43.700;-79.318;2022-09-09T08:53:50;100220.18;;;18.61;50.74
64139;BME280;50435;43.700;-79.318;2022-09-09T08:56:22;100224.97;;;18.42;50.66
64139;BME280;50435;43.700;-79.318;2022-09-09T08:58:53;100228.92;;;18.40;50.66
64139;BME280;50435;43.700;-79.318;2022-09-09T09:01:38;100230.86;;;18.51;50.42
64139;BME280;50435;43.700;-79.318;2022-09-09T09:04:21;100237.39;;;18.48;50.51
64139;BME280;50435;43.700;-79.318;2022-09-09T09:07:03;100236.55;;;18.51;50.38
64139;BME280;50435;43.700;-79.318;2022-09-09T09:09:38;100236.97;;;18.91;50.53
64139;BME280;50435;43.700;-79.318;2022-09-09T09:12:18;100238.37;;;18.44;50.47
64139;BME280;50435;43.700;-79.318;2022-09-09T09:14:48;100242.43;;;18.40;50.54
64139;BME280;50435;43.700;-79.318;2022-09-09T09:17:18;100246.14;;;18.68;50.48
64139;BME280;50435;43.700;-79.318;2022-09-09T09:19:48;100246.14;;;18.31;50.66
64139;BME280;50435;43.700;-79.318;2022-09-09T09:22:18;100248.46;;;18.56;50.68
64139;BME280;50435;43.700;-79.318;2022-09-09T09:24:51;100248.99;;;18.92;50.45
64139;BME280;50435;43.700;-79.318;2022-09-09T09:27:33;100253.96;;;18.44;50.42
64139;BME280;50435;43.700;-79.318;2022-09-09T09:30:12;100255.32;;;18.31;50.59
64139;BME280;50435;43.700;-79.318;2022-09-09T09:32:44;100256.97;;;18.40;50.45
64139;BME280;50435;43.700;-79.318;2022-09-09T09:35:15;100256.26;;;18.26;50.70
64139;BME280;50435;43.700;-79.318;2022-09-09T09:37:42;100260.60;;;18.55;50.58
64139;BME280;50435;43.700;-79.318;2022-09-09T09:40:10;100264.55;;;18.46;50.75
64139;BME280;50435;43.700;-79.318;2022-09-09T09:42:48;100268.32;;;18.23;50.66
64139;BME280;50435;43.700;-79.318;2022-09-09T09:45:20;100276.09;;;18.25;50.60
64139;BME280;50435;43.700;-79.318;2022-09-09T09:47:59;100277.95;;;18.07;50.94
64139;BME280;50435;43.700;-79.318;2022-09-09T09:50:26;100278.13;;;18.41;50.83
64139;BME280;50435;43.700;-79.318;2022-09-09T09:52:55;100276.66;;;18.54;50.57
64139;BME280;50435;43.700;-79.318;2022-09-09T09:55:24;100274.06;;;18.39;50.80
64139;BME280;50435;43.700;-79.318;2022-09-09T09:57:52;100274.66;;;18.36;50.83
64139;BME280;50435;43.700;-79.318;2022-09-09T10:00:21;100275.77;;;17.98;50.98
64139;BME280;50435;43.700;-79.318;2022-09-09T10:02:49;100272.03;;;17.91;51.09
64139;BME280;50435;43.700;-79.318;2022-09-09T10:05:18;100266.97;;;18.13;50.70
64139;BME280;50435;43.700;-79.318;2022-09-09T10:07:47;100268.26;;;18.51;50.84
64139;BME280;50435;43.700;-79.318;2022-09-09T10:10:35;100264.06;;;17.93;50.94
64139;BME280;50435;43.700;-79.318;2022-09-09T10:13:10;100268.00;;;18.41;50.97
64139;BME280;50435;43.700;-79.318;2022-09-09T10:15:47;100266.90;;;18.18;51.00
64139;BME280;50435;43.700;-79.318;2022-09-09T10:18:30;100271.42;;;17.89;51.07
64139;BME280;50435;43.700;-79.318;2022-09-09T10:21:08;100270.82;;;18.28;50.79
64139;BME280;50435;43.700;-79.318;2022-09-09T10:23:51;100271.56;;;17.94;50.88
64139;BME280;50435;43.700;-79.318;2022-09-09T10:26:34;100271.04;;;18.60;50.54
64139;BME280;50435;43.700;-79.318;2022-09-09T10:29:20;100270.97;;;18.29;50.73
64139;BME280;50435;43.700;-79.318;2022-09-09T10:32:00;100272.56;;;18.09;50.99
64139;BME280;50435;43.700;-79.318;2022-09-09T10:34:48;100274.95;;;18.08;51.03
64139;BME280;50435;43.700;-79.318;2022-09-09T10:37:31;100275.86;;;18.35;50.89
64139;BME280;50435;43.700;-79.318;2022-09-09T10:40:15;100279.58;;;18.05;50.98
64139;BME280;50435;43.700;-79.318;2022-09-09T10:42:45;100285.42;;;17.99;51.08
64139;BME280;50435;43.700;-79.318;2022-09-09T10:45:18;100284.33;;;18.08;50.94
64139;BME280;50435;43.700;-79.318;2022-09-09T10:47:58;100283.54;;;17.67;51.14
64139;BME280;50435;43.700;-79.318;2022-09-09T10:50:43;100286.74;;;17.84;50.84
64139;BME280;50435;43.700;-79.318;2022-09-09T10:53:22;100288.06;;;17.73;51.02
64139;BME280;50435;43.700;-79.318;2022-09-09T10:55:55;100291.04;;;18.33;50.78
64139;BME280;50435;43.700;-79.318;2022-09-09T10:58:28;100296.13;;;18.36;50.74
64139;BME280;50435;43.700;-79.318;2022-09-09T11:01:01;100296.93;;;18.03;51.27
64139;BME280;50435;43.700;-79.318;2022-09-09T11:03:31;100295.89;;;18.25;50.86
64139;BME280;50435;43.700;-79.318;2022-09-09T11:06:05;100305.52;;;17.95;51.02
64139;BME280;50435;43.700;-79.318;2022-09-09T11:08:36;100309.80;;;17.90;51.14
64139;BME280;50435;43.700;-79.318;2022-09-09T11:11:12;100316.57;;;17.75;51.39
64139;BME280;50435;43.700;-79.318;2022-09-09T11:13:45;100317.87;;;18.02;51.26
64139;BME280;50435;43.700;-79.318;2022-09-09T11:16:24;100319.27;;;18.16;50.98
64139;BME280;50435;43.700;-79.318;2022-09-09T11:18:59;100319.69;;;18.00;51.26
64139;BME280;50435;43.700;-79.318;2022-09-09T11:21:30;100325.49;;;17.92;51.39
64139;BME280;50435;43.700;-79.318;2022-09-09T11:24:02;100331.91;;;18.10;51.10
64139;BME280;50435;43.700;-79.318;2022-09-09T11:26:35;100336.77;;;18.00;51.23
64139;BME280;50435;43.700;-79.318;2022-09-09T11:29:19;100338.99;;;18.19;50.91
64139;BME280;50435;43.700;-79.318;2022-09-09T11:32:00;100341.83;;;18.04;51.13
64139;BME280;50435;43.700;-79.318;2022-09-09T11:34:40;100347.02;;;17.96;51.33
64139;BME280;50435;43.700;-79.318;2022-09-09T11:37:40;100343.52;;;18.20;50.87
64139;BME280;50435;43.700;-79.318;2022-09-09T11:40:19;100340.69;;;17.90;51.47
64139;BME280;50435;43.700;-79.318;2022-09-09T11:42:48;100345.72;;;17.85;51.14
64139;BME280;50435;43.700;-79.318;2022-09-09T11:45:23;100346.77;;;17.73;51.40
64139;BME280;50435;43.700;-79.318;2022-09-09T11:47:53;100348.00;;;17.80;51.61
64139;BME280;50435;43.700;-79.318;2022-09-09T11:50:31;100348.13;;;18.07;51.12
64139;BME280;50435;43.700;-79.318;2022-09-09T11:53:19;100348.50;;;17.99;51.17
64139;BME280;50435;43.700;-79.318;2022-09-09T11:55:47;100347.85;;;17.97;51.32
64139;BME280;50435;43.700;-79.318;2022-09-09T11:58:17;100345.68;;;17.62;51.51
64139;BME280;50435;43.700;-79.318;2022-09-09T12:00:46;100350.00;;;18.06;51.19
64139;BME280;50435;43.700;-79.318;2022-09-09T12:03:34;100353.22;;;18.04;51.20
64139;BME280;50435;43.700;-79.318;2022-09-09T12:06:13;100360.10;;;18.11;51.09
64139;BME280;50435;43.700;-79.318;2022-09-09T12:08:45;100364.99;;;18.03;51.20
64139;BME280;50435;43.700;-79.318;2022-09-09T12:11:24;100368.19;;;17.89;51.54
64139;BME280;50435;43.700;-79.318;2022-09-09T12:13:54;100367.37;;;18.11;51.15
64139;BME280;50435;43.700;-79.318;2022-09-09T12:16:32;100368.28;;;18.02;51.32
64139;BME280;50435;43.700;-79.318;2022-09-09T12:19:06;100366.90;;;17.98;51.35
64139;BME280;50435;43.700;-79.318;2022-09-09T12:21:38;100369.26;;;17.92;51.12
64139;BME280;50435;43.700;-79.318;2022-09-09T12:24:14;100371.63;;;17.81;51.38
64139;BME280;50435;43.700;-79.318;2022-09-09T12:26:49;100373.58;;;17.91;51.69
64139;BME280;50435;43.700;-79.318;2022-09-09T12:29:26;100371.52;;;18.02;51.45
64139;BME280;50435;43.700;-79.318;2022-09-09T12:32:02;100371.28;;;17.57;51.37
64139;BME280;50435;43.700;-79.318;2022-09-09T12:34:38;100371.70;;;17.92;51.32
64139;BME280;50435;43.700;-79.318;2022-09-09T12:37:14;100376.65;;;18.06;51.05
64139;BME280;50435;43.700;-79.318;2022-09-09T12:39:45;100382.23;;;18.38;50.74
64139;BME280;50435;43.700;-79.318;2022-09-09T12:42:18;100381.55;;;18.50;50.57
64139;BME280;50435;43.700;-79.318;2022-09-09T12:44:54;100382.40;;;18.58;50.46
64139;BME280;50435;43.700;-79.318;2022-09-09T12:47:28;100381.80;;;18.60;50.53
64139;BME280;50435;43.700;-79.318;2022-09-09T12:49:58;100380.76;;;18.77;50.22
64139;BME280;50435;43.700;-79.318;2022-09-09T12:52:29;100381.74;;;18.60;50.22